Rechercher aéroport 
image banner adimage banner ad
image banner ad

TFFC - Saint Francois

Situé à Saint Francois, Guadeloupe

ICAO - TFFC, IATA - SFC

Données fournies par Airmate  

Information générale

Coordonnées: N16°15'28" W61°15'45"
Élévation : 10 feet MSL.
Variation magnétique : -14.7° East
Évalué:
Voir évaluations: [VIEW]


Voir autres Aéroports à (unassigned)

Données opérationnelles

Accessible au public
Heure actuelle UTC:
Heure actuelle locale:
Météo à : TFFR - Pointe A Pitre Le Raizet ( 28 km )
METAR: TFFR 051300Z AUTO 07015KT 9999 SCT031 30/21 Q1018 TEMPO 4000 SHRA SCT018TCU
TAF: TAF TFFR 051000Z 0512/0612 09012KT 9999 SCT030 SCT050 PROB30 TEMPO 0512/0609 4000 SHRA SCT018TCU
Voir NOTAMs / SUP AIP / TFR affectant cet aéroport [VIEW]
Fréquences de communication: [VIEW]

Pistes:

Identifiant RWYQFULongueur (ft)Largeur (ft)SurfaceLDA (ft)
1199°191659ASPH1916
29279°191659ASPH1916

Coordonnées de l'aéroport

Adresse: Saint Francois Guadeloupe

Autres services d'aviation

Clubs d'aviation (sans but lucratif)

Aéroclub Saint-François Caraïbes

Aéroclub Saint-François Caraïbes

ULM Caraïbes

ULM Caraïbes
+330690642848

Vue satellite de TFFC